sensor_id;sensor_type;location;lat;lon;timestamp;pressure;altitude;pressure_sealevel;temperature;humidity
32033;BME280;31720;52.638;9.216;2023-05-29T00:01:49;101987.16;;;12.72;86.97
32033;BME280;31720;52.638;9.216;2023-05-29T00:04:51;101989.75;;;12.73;85.81
32033;BME280;31720;52.638;9.216;2023-05-29T00:07:53;101992.91;;;12.61;86.78
32033;BME280;31720;52.638;9.216;2023-05-29T00:10:54;101996.66;;;12.55;87.66
32033;BME280;31720;52.638;9.216;2023-05-29T00:13:57;101992.44;;;12.51;86.21
32033;BME280;31720;52.638;9.216;2023-05-29T00:16:58;101996.13;;;12.47;87.35
32033;BME280;31720;52.638;9.216;2023-05-29T00:19:59;101996.13;;;12.47;88.03
32033;BME280;31720;52.638;9.216;2023-05-29T00:23:02;102000.16;;;12.56;88.47
32033;BME280;31720;52.638;9.216;2023-05-29T00:26:06;101993.16;;;12.55;87.71
32033;BME280;31720;52.638;9.216;2023-05-29T00:29:09;102001.19;;;12.52;88.25
32033;BME280;31720;52.638;9.216;2023-05-29T00:32:10;102008.44;;;12.47;87.72
32033;BME280;31720;52.638;9.216;2023-05-29T00:35:12;102004.94;;;12.46;89.62
32033;BME280;31720;52.638;9.216;2023-05-29T00:38:13;102014.56;;;12.47;90.06
32033;BME280;31720;52.638;9.216;2023-05-29T00:41:15;102010.59;;;12.37;89.60
32033;BME280;31720;52.638;9.216;2023-05-29T00:44:18;101996.50;;;12.38;90.25
32033;BME280;31720;52.638;9.216;2023-05-29T00:47:19;102005.41;;;12.35;89.51
32033;BME280;31720;52.638;9.216;2023-05-29T00:50:21;102002.41;;;12.23;91.41
32033;BME280;31720;52.638;9.216;2023-05-29T00:53:25;101999.44;;;12.30;91.69
32033;BME280;31720;52.638;9.216;2023-05-29T00:56:26;102005.56;;;12.31;91.47
32033;BME280;31720;52.638;9.216;2023-05-29T00:59:31;102009.13;;;12.30;91.73
32033;BME280;31720;52.638;9.216;2023-05-29T01:02:32;102004.03;;;12.25;92.17
32033;BME280;31720;52.638;9.216;2023-05-29T01:05:36;102013.13;;;12.18;92.82
32033;BME280;31720;52.638;9.216;2023-05-29T01:08:37;102023.78;;;12.15;93.08
32033;BME280;31720;52.638;9.216;2023-05-29T01:11:46;102011.44;;;12.15;93.30
32033;BME280;31720;52.638;9.216;2023-05-29T01:15:01;102025.16;;;12.02;93.80
32033;BME280;31720;52.638;9.216;2023-05-29T01:18:11;102026.03;;;12.02;94.95
32033;BME280;31720;52.638;9.216;2023-05-29T01:21:22;102032.97;;;12.05;94.58
32033;BME280;31720;52.638;9.216;2023-05-29T01:24:28;102030.53;;;12.22;94.65
32033;BME280;31720;52.638;9.216;2023-05-29T01:27:32;102029.28;;;12.09;93.00
32033;BME280;31720;52.638;9.216;2023-05-29T01:30:33;102036.38;;;12.07;93.92
32033;BME280;31720;52.638;9.216;2023-05-29T01:33:38;102041.53;;;12.10;95.19
32033;BME280;31720;52.638;9.216;2023-05-29T01:36:40;102039.03;;;12.07;93.96
32033;BME280;31720;52.638;9.216;2023-05-29T01:39:42;102055.81;;;12.04;94.90
32033;BME280;31720;52.638;9.216;2023-05-29T01:42:45;102050.19;;;12.13;95.51
32033;BME280;31720;52.638;9.216;2023-05-29T01:45:46;102047.00;;;12.05;96.49
32033;BME280;31720;52.638;9.216;2023-05-29T01:48:48;102055.50;;;12.12;96.21
32033;BME280;31720;52.638;9.216;2023-05-29T01:51:50;102051.97;;;12.13;96.20
32033;BME280;31720;52.638;9.216;2023-05-29T01:54:51;102054.78;;;12.08;94.33
32033;BME280;31720;52.638;9.216;2023-05-29T01:57:54;102063.16;;;11.96;94.59
32033;BME280;31720;52.638;9.216;2023-05-29T02:00:57;102064.34;;;11.87;95.62
32033;BME280;31720;52.638;9.216;2023-05-29T02:03:59;102068.69;;;11.88;95.46
32033;BME280;31720;52.638;9.216;2023-05-29T02:07:00;102060.19;;;11.80;93.72
32033;BME280;31720;52.638;9.216;2023-05-29T02:10:01;102061.53;;;11.68;94.97
32033;BME280;31720;52.638;9.216;2023-05-29T02:13:04;102074.09;;;11.60;96.89
32033;BME280;31720;52.638;9.216;2023-05-29T02:16:06;102065.94;;;11.68;94.71
32033;BME280;31720;52.638;9.216;2023-05-29T02:19:07;102068.94;;;11.57;96.16
32033;BME280;31720;52.638;9.216;2023-05-29T02:22:08;102068.03;;;11.58;95.65
32033;BME280;31720;52.638;9.216;2023-05-29T02:25:10;102064.06;;;11.47;96.70
32033;BME280;31720;52.638;9.216;2023-05-29T02:28:12;102059.59;;;11.49;97.43
32033;BME280;31720;52.638;9.216;2023-05-29T02:31:14;102053.31;;;11.53;95.74
32033;BME280;31720;52.638;9.216;2023-05-29T02:34:15;102057.19;;;11.42;95.44
32033;BME280;31720;52.638;9.216;2023-05-29T02:37:16;102053.78;;;11.40;95.44
32033;BME280;31720;52.638;9.216;2023-05-29T02:40:18;102050.31;;;11.38;96.71
32033;BME280;31720;52.638;9.216;2023-05-29T02:43:21;102059.91;;;11.41;95.42
32033;BME280;31720;52.638;9.216;2023-05-29T02:46:23;102056.56;;;11.36;95.67
32033;BME280;31720;52.638;9.216;2023-05-29T02:49:24;102054.78;;;11.36;95.42
32033;BME280;31720;52.638;9.216;2023-05-29T02:52:26;102054.38;;;11.24;95.25
32033;BME280;31720;52.638;9.216;2023-05-29T02:55:30;102064.06;;;11.22;98.36
32033;BME280;31720;52.638;9.216;2023-05-29T02:58:37;102076.19;;;11.26;95.58
32033;BME280;31720;52.638;9.216;2023-05-29T03:01:38;102062.66;;;11.11;96.66
32033;BME280;31720;52.638;9.216;2023-05-29T03:04:40;102069.66;;;11.12;95.99
32033;BME280;31720;52.638;9.216;2023-05-29T03:07:41;102072.19;;;11.15;95.48
32033;BME280;31720;52.638;9.216;2023-05-29T03:10:42;102072.03;;;11.20;94.47
32033;BME280;31720;52.638;9.216;2023-05-29T03:13:46;102075.78;;;11.13;94.84
32033;BME280;31720;52.638;9.216;2023-05-29T03:16:49;102066.97;;;11.14;94.40
32033;BME280;31720;52.638;9.216;2023-05-29T03:19:50;102076.34;;;11.23;93.17
32033;BME280;31720;52.638;9.216;2023-05-29T03:22:52;102072.94;;;11.19;92.86
32033;BME280;31720;52.638;9.216;2023-05-29T03:25:53;102065.69;;;11.26;91.86
32033;BME280;31720;52.638;9.216;2023-05-29T03:28:56;102072.09;;;11.18;90.45
32033;BME280;31720;52.638;9.216;2023-05-29T03:31:57;102064.28;;;11.15;90.25
32033;BME280;31720;52.638;9.216;2023-05-29T03:34:59;102066.91;;;11.15;91.68
32033;BME280;31720;52.638;9.216;2023-05-29T03:38:01;102065.84;;;11.21;91.64
32033;BME280;31720;52.638;9.216;2023-05-29T03:41:02;102065.91;;;11.20;90.30
32033;BME280;31720;52.638;9.216;2023-05-29T03:44:05;102064.50;;;11.09;90.86
32033;BME280;31720;52.638;9.216;2023-05-29T03:47:06;102066.31;;;11.07;91.21
32033;BME280;31720;52.638;9.216;2023-05-29T03:50:09;102084.09;;;11.01;90.97
32033;BME280;31720;52.638;9.216;2023-05-29T03:53:11;102075.28;;;11.02;91.61
32033;BME280;31720;52.638;9.216;2023-05-29T03:56:12;102086.81;;;10.98;93.03
32033;BME280;31720;52.638;9.216;2023-05-29T03:59:15;102086.06;;;10.94;90.08
32033;BME280;31720;52.638;9.216;2023-05-29T04:02:17;102093.09;;;10.93;91.99
32033;BME280;31720;52.638;9.216;2023-05-29T04:05:18;102092.13;;;10.96;91.56
32033;BME280;31720;52.638;9.216;2023-05-29T04:08:19;102093.53;;;10.80;90.90
32033;BME280;31720;52.638;9.216;2023-05-29T04:11:21;102091.13;;;10.74;92.17
32033;BME280;31720;52.638;9.216;2023-05-29T04:14:23;102088.56;;;10.72;92.38
32033;BME280;31720;52.638;9.216;2023-05-29T04:17:25;102100.94;;;10.69;91.63
32033;BME280;31720;52.638;9.216;2023-05-29T04:20:27;102104.50;;;10.66;92.48
32033;BME280;31720;52.638;9.216;2023-05-29T04:23:28;102097.28;;;10.73;92.83
32033;BME280;31720;52.638;9.216;2023-05-29T04:26:30;102098.81;;;10.80;92.05
32033;BME280;31720;52.638;9.216;2023-05-29T04:29:34;102097.03;;;10.80;91.66
32033;BME280;31720;52.638;9.216;2023-05-29T04:32:35;102103.19;;;10.79;92.71
32033;BME280;31720;52.638;9.216;2023-05-29T04:35:37;102099.72;;;10.79;90.79
32033;BME280;31720;52.638;9.216;2023-05-29T04:38:38;102106.13;;;10.70;93.32
32033;BME280;31720;52.638;9.216;2023-05-29T04:41:40;102112.25;;;10.71;93.09
32033;BME280;31720;52.638;9.216;2023-05-29T04:44:42;102123.69;;;10.70;92.98
32033;BME280;31720;52.638;9.216;2023-05-29T04:47:44;102124.75;;;10.64;93.20
32033;BME280;31720;52.638;9.216;2023-05-29T04:50:45;102124.38;;;10.75;91.37
32033;BME280;31720;52.638;9.216;2023-05-29T04:53:49;102112.38;;;10.68;90.40
32033;BME280;31720;52.638;9.216;2023-05-29T04:56:51;102113.53;;;10.57;91.25
32033;BME280;31720;52.638;9.216;2023-05-29T04:59:54;102114.81;;;10.44;90.72
32033;BME280;31720;52.638;9.216;2023-05-29T05:02:56;102117.31;;;10.49;91.99
32033;BME280;31720;52.638;9.216;2023-05-29T05:05:57;102112.06;;;10.49;89.60
32033;BME280;31720;52.638;9.216;2023-05-29T05:08:58;102118.22;;;10.48;89.32
32033;BME280;31720;52.638;9.216;2023-05-29T05:12:00;102120.97;;;10.45;90.21
32033;BME280;31720;52.638;9.216;2023-05-29T05:15:03;102122.56;;;10.49;89.39
32033;BME280;31720;52.638;9.216;2023-05-29T05:18:05;102118.19;;;10.49;89.48
32033;BME280;31720;52.638;9.216;2023-05-29T05:21:06;102123.31;;;10.54;89.57
32033;BME280;31720;52.638;9.216;2023-05-29T05:24:08;102113.66;;;10.54;87.68
32033;BME280;31720;52.638;9.216;2023-05-29T05:27:09;102127.53;;;10.58;90.30
32033;BME280;31720;52.638;9.216;2023-05-29T05:30:13;102127.50;;;10.59;88.40
32033;BME280;31720;52.638;9.216;2023-05-29T05:33:14;102136.75;;;10.71;87.58
32033;BME280;31720;52.638;9.216;2023-05-29T05:36:15;102133.28;;;10.71;86.06
32033;BME280;31720;52.638;9.216;2023-05-29T05:39:17;102128.78;;;10.74;89.22
32033;BME280;31720;52.638;9.216;2023-05-29T05:42:18;102134.66;;;10.82;87.45
32033;BME280;31720;52.638;9.216;2023-05-29T05:45:21;102144.91;;;10.90;86.19
32033;BME280;31720;52.638;9.216;2023-05-29T05:48:22;102143.28;;;10.87;86.77
32033;BME280;31720;52.638;9.216;2023-05-29T05:51:24;102143.81;;;10.97;83.96
32033;BME280;31720;52.638;9.216;2023-05-29T05:54:25;102149.84;;;11.01;84.98
32033;BME280;31720;52.638;9.216;2023-05-29T05:57:27;102149.16;;;10.96;83.83
32033;BME280;31720;52.638;9.216;2023-05-29T06:00:29;102157.03;;;10.96;82.99
32033;BME280;31720;52.638;9.216;2023-05-29T06:03:31;102155.50;;;10.88;83.47
32033;BME280;31720;52.638;9.216;2023-05-29T06:06:33;102159.00;;;10.89;83.08
32033;BME280;31720;52.638;9.216;2023-05-29T06:09:34;102162.53;;;10.88;83.15
32033;BME280;31720;52.638;9.216;2023-05-29T06:12:36;102159.69;;;10.94;84.47
32033;BME280;31720;52.638;9.216;2023-05-29T06:15:38;102170.06;;;10.99;84.78
32033;BME280;31720;52.638;9.216;2023-05-29T06:18:40;102182.97;;;11.06;83.04
32033;BME280;31720;52.638;9.216;2023-05-29T06:21:41;102179.50;;;11.06;82.88
32033;BME280;31720;52.638;9.216;2023-05-29T06:24:43;102175.78;;;11.13;82.00
32033;BME280;31720;52.638;9.216;2023-05-29T06:27:44;102179.13;;;11.16;82.28
32033;BME280;31720;52.638;9.216;2023-05-29T06:30:47;102179.25;;;11.13;81.46
32033;BME280;31720;52.638;9.216;2023-05-29T06:33:48;102176.00;;;11.05;83.11
32033;BME280;31720;52.638;9.216;2023-05-29T06:36:50;102170.38;;;11.16;82.70
32033;BME280;31720;52.638;9.216;2023-05-29T06:39:51;102175.34;;;11.25;81.76
32033;BME280;31720;52.638;9.216;2023-05-29T06:42:53;102168.16;;;11.30;82.09
32033;BME280;31720;52.638;9.216;2023-05-29T06:45:55;102168.91;;;11.34;81.78
32033;BME280;31720;52.638;9.216;2023-05-29T06:48:57;102163.50;;;11.38;79.80
32033;BME280;31720;52.638;9.216;2023-05-29T06:51:58;102165.13;;;11.42;82.91
32033;BME280;31720;52.638;9.216;2023-05-29T06:55:00;102177.16;;;11.50;83.44
32033;BME280;31720;52.638;9.216;2023-05-29T06:58:01;102175.09;;;11.59;81.92
32033;BME280;31720;52.638;9.216;2023-05-29T07:01:04;102185.13;;;11.73;81.51
32033;BME280;31720;52.638;9.216;2023-05-29T07:04:05;102178.25;;;11.69;80.44
32033;BME280;31720;52.638;9.216;2023-05-29T07:07:07;102185.06;;;11.75;80.10
32033;BME280;31720;52.638;9.216;2023-05-29T07:10:09;102181.22;;;11.85;81.95
32033;BME280;31720;52.638;9.216;2023-05-29T07:13:14;102190.81;;;11.87;81.67
32033;BME280;31720;52.638;9.216;2023-05-29T07:16:17;102200.22;;;11.95;80.43
32033;BME280;31720;52.638;9.216;2023-05-29T07:19:19;102199.91;;;12.02;80.90
32033;BME280;31720;52.638;9.216;2023-05-29T07:22:20;102199.13;;;12.00;79.12
32033;BME280;31720;52.638;9.216;2023-05-29T07:25:21;102193.78;;;12.02;78.52
32033;BME280;31720;52.638;9.216;2023-05-29T07:28:23;102191.91;;;12.05;79.09
32033;BME280;31720;52.638;9.216;2023-05-29T07:31:25;102193.56;;;12.08;80.60
32033;BME280;31720;52.638;9.216;2023-05-29T07:34:27;102198.56;;;12.15;79.60
32033;BME280;31720;52.638;9.216;2023-05-29T07:37:28;102195.25;;;12.10;79.76
32033;BME280;31720;52.638;9.216;2023-05-29T07:40:30;102187.25;;;12.12;80.79
32033;BME280;31720;52.638;9.216;2023-05-29T07:43:31;102188.13;;;12.12;81.08
32033;BME280;31720;52.638;9.216;2023-05-29T07:46:34;102187.06;;;12.18;80.22
32033;BME280;31720;52.638;9.216;2023-05-29T07:49:35;102191.31;;;12.22;80.08
32033;BME280;31720;52.638;9.216;2023-05-29T07:52:37;102191.13;;;12.27;77.89
32033;BME280;31720;52.638;9.216;2023-05-29T07:55:38;102195.47;;;12.28;80.52
32033;BME280;31720;52.638;9.216;2023-05-29T07:58:39;102201.53;;;12.30;79.26
32033;BME280;31720;52.638;9.216;2023-05-29T08:01:43;102201.38;;;12.34;78.27
32033;BME280;31720;52.638;9.216;2023-05-29T08:04:44;102210.09;;;12.36;79.17
32033;BME280;31720;52.638;9.216;2023-05-29T08:07:46;102211.13;;;12.32;76.68
32033;BME280;31720;52.638;9.216;2023-05-29T08:10:48;102214.44;;;12.37;75.64
32033;BME280;31720;52.638;9.216;2023-05-29T08:13:50;102206.59;;;12.36;76.08
32033;BME280;31720;52.638;9.216;2023-05-29T08:16:52;102208.06;;;12.43;77.15
32033;BME280;31720;52.638;9.216;2023-05-29T08:19:54;102209.97;;;12.39;78.03
32033;BME280;31720;52.638;9.216;2023-05-29T08:22:55;102216.63;;;12.50;77.68
32033;BME280;31720;52.638;9.216;2023-05-29T08:25:56;102210.16;;;12.58;74.95
32033;BME280;31720;52.638;9.216;2023-05-29T08:28:58;102211.72;;;12.62;74.74
32033;BME280;31720;52.638;9.216;2023-05-29T08:32:01;102212.47;;;12.66;72.71
32033;BME280;31720;52.638;9.216;2023-05-29T08:35:03;102211.63;;;12.65;75.37
32033;BME280;31720;52.638;9.216;2023-05-29T08:38:05;102211.25;;;12.75;79.77
32033;BME280;31720;52.638;9.216;2023-05-29T08:41:07;102215.22;;;12.86;77.83
32033;BME280;31720;52.638;9.216;2023-05-29T08:44:12;102219.31;;;12.93;79.33
32033;BME280;31720;52.638;9.216;2023-05-29T08:47:16;102217.16;;;13.03;77.09
32033;BME280;31720;52.638;9.216;2023-05-29T08:50:21;102216.00;;;13.10;76.07
32033;BME280;31720;52.638;9.216;2023-05-29T08:53:24;102216.56;;;13.18;76.87
32033;BME280;31720;52.638;9.216;2023-05-29T08:56:26;102223.31;;;13.26;75.34
32033;BME280;31720;52.638;9.216;2023-05-29T08:59:29;102224.31;;;13.23;73.47
32033;BME280;31720;52.638;9.216;2023-05-29T09:02:32;102221.97;;;13.37;74.23
32033;BME280;31720;52.638;9.216;2023-05-29T09:05:35;102219.25;;;13.39;73.05
32033;BME280;31720;52.638;9.216;2023-05-29T09:08:40;102219.22;;;13.40;71.57
32033;BME280;31720;52.638;9.216;2023-05-29T09:11:43;102232.16;;;13.47;71.61
32033;BME280;31720;52.638;9.216;2023-05-29T09:14:45;102216.91;;;13.53;71.05
32033;BME280;31720;52.638;9.216;2023-05-29T09:17:52;102216.50;;;13.62;71.56
32033;BME280;31720;52.638;9.216;2023-05-29T09:20:54;102224.03;;;13.71;72.16
32033;BME280;31720;52.638;9.216;2023-05-29T09:24:03;102206.22;;;13.77;72.45
32033;BME280;31720;52.638;9.216;2023-05-29T09:27:05;102216.53;;;13.83;70.20
32033;BME280;31720;52.638;9.216;2023-05-29T09:30:10;102221.81;;;13.83;68.94
32033;BME280;31720;52.638;9.216;2023-05-29T09:33:14;102215.53;;;13.85;71.11
32033;BME280;31720;52.638;9.216;2023-05-29T09:36:22;102194.78;;;13.96;67.64
32033;BME280;31720;52.638;9.216;2023-05-29T09:39:23;102208.44;;;14.06;68.21
32033;BME280;31720;52.638;9.216;2023-05-29T09:42:25;102213.53;;;14.11;68.70
32033;BME280;31720;52.638;9.216;2023-05-29T09:45:26;102210.03;;;14.10;65.61
32033;BME280;31720;52.638;9.216;2023-05-29T09:48:29;102203.25;;;14.24;65.43
32033;BME280;31720;52.638;9.216;2023-05-29T09:51:31;102206.41;;;14.32;67.87
32033;BME280;31720;52.638;9.216;2023-05-29T09:54:34;102208.63;;;14.41;66.42
32033;BME280;31720;52.638;9.216;2023-05-29T09:57:36;102202.09;;;14.50;66.62
32033;BME280;31720;52.638;9.216;2023-05-29T10:00:39;102203.72;;;14.52;67.08
32033;BME280;31720;52.638;9.216;2023-05-29T10:03:41;102209.63;;;14.59;68.08
32033;BME280;31720;52.638;9.216;2023-05-29T10:06:45;102204.38;;;14.57;68.65
32033;BME280;31720;52.638;9.216;2023-05-29T10:09:52;102207.66;;;14.62;67.97
32033;BME280;31720;52.638;9.216;2023-05-29T10:12:55;102210.75;;;14.72;66.67
32033;BME280;31720;52.638;9.216;2023-05-29T10:15:58;102214.81;;;14.79;65.41
32033;BME280;31720;52.638;9.216;2023-05-29T10:19:04;102218.94;;;14.85;65.41
32033;BME280;31720;52.638;9.216;2023-05-29T10:22:08;102213.66;;;14.85;67.46
32033;BME280;31720;52.638;9.216;2023-05-29T10:25:12;102206.28;;;14.91;68.07
32033;BME280;31720;52.638;9.216;2023-05-29T10:28:14;102192.13;;;14.92;66.06
32033;BME280;31720;52.638;9.216;2023-05-29T10:31:19;102195.16;;;15.02;67.34
32033;BME280;31720;52.638;9.216;2023-05-29T10:34:30;102193.72;;;15.14;63.59
32033;BME280;31720;52.638;9.216;2023-05-29T10:37:36;102191.69;;;15.19;61.29
32033;BME280;31720;52.638;9.216;2023-05-29T10:40:38;102190.16;;;15.32;62.41
32033;BME280;31720;52.638;9.216;2023-05-29T10:43:39;102179.19;;;15.40;63.53
32033;BME280;31720;52.638;9.216;2023-05-29T10:47:03;102185.78;;;15.48;61.28
32033;BME280;31720;52.638;9.216;2023-05-29T10:50:06;102183.31;;;15.45;63.91
32033;BME280;31720;52.638;9.216;2023-05-29T10:53:09;102172.38;;;15.52;62.79
32033;BME280;31720;52.638;9.216;2023-05-29T10:56:15;102165.63;;;15.63;62.94
32033;BME280;31720;52.638;9.216;2023-05-29T10:59:17;102169.97;;;15.82;59.24
32033;BME280;31720;52.638;9.216;2023-05-29T11:02:22;102170.84;;;15.82;57.82
32033;BME280;31720;52.638;9.216;2023-05-29T11:05:25;102170.59;;;15.87;58.36
32033;BME280;31720;52.638;9.216;2023-05-29T11:08:32;102165.28;;;15.87;59.23
32033;BME280;31720;52.638;9.216;2023-05-29T11:11:34;102163.16;;;15.93;63.49
32033;BME280;31720;52.638;9.216;2023-05-29T11:14:45;102147.81;;;16.16;63.56
32033;BME280;31720;52.638;9.216;2023-05-29T11:17:47;102153.47;;;16.26;60.82
32033;BME280;31720;52.638;9.216;2023-05-29T11:20:55;102158.44;;;16.32;56.88
32033;BME280;31720;52.638;9.216;2023-05-29T11:23:58;102148.09;;;16.59;57.36
32033;BME280;31720;52.638;9.216;2023-05-29T11:27:03;102150.78;;;16.74;55.57
32033;BME280;31720;52.638;9.216;2023-05-29T11:30:08;102151.78;;;16.88;56.13
32033;BME280;31720;52.638;9.216;2023-05-29T11:33:22;102153.31;;;16.92;56.95
32033;BME280;31720;52.638;9.216;2023-05-29T11:36:26;102154.84;;;16.96;56.00
32033;BME280;31720;52.638;9.216;2023-05-29T11:39:28;102156.19;;;17.03;55.68
32033;BME280;31720;52.638;9.216;2023-05-29T11:42:31;102163.91;;;17.08;53.28
32033;BME280;31720;52.638;9.216;2023-05-29T11:45:32;102158.69;;;17.36;56.92
32033;BME280;31720;52.638;9.216;2023-05-29T11:48:44;102151.97;;;17.45;51.00
32033;BME280;31720;52.638;9.216;2023-05-29T11:51:47;102158.19;;;17.60;59.72
32033;BME280;31720;52.638;9.216;2023-05-29T11:54:49;102160.03;;;17.73;52.36
32033;BME280;31720;52.638;9.216;2023-05-29T11:57:51;102158.34;;;17.87;50.23
32033;BME280;31720;52.638;9.216;2023-05-29T12:00:56;102145.31;;;17.96;51.28
32033;BME280;31720;52.638;9.216;2023-05-29T12:03:58;102148.25;;;18.06;51.59
32033;BME280;31720;52.638;9.216;2023-05-29T12:07:00;102142.09;;;18.06;48.63
32033;BME280;31720;52.638;9.216;2023-05-29T12:10:09;102134.28;;;18.17;54.81
32033;BME280;31720;52.638;9.216;2023-05-29T12:13:11;102137.38;;;18.38;48.41
32033;BME280;31720;52.638;9.216;2023-05-29T12:16:12;102133.69;;;18.67;51.48
32033;BME280;31720;52.638;9.216;2023-05-29T12:19:13;102141.16;;;18.89;48.39
32033;BME280;31720;52.638;9.216;2023-05-29T12:22:16;102141.16;;;18.89;47.15
32033;BME280;31720;52.638;9.216;2023-05-29T12:25:19;102136.22;;;18.83;46.02
32033;BME280;31720;52.638;9.216;2023-05-29T12:28:21;102144.03;;;18.86;45.39
32033;BME280;31720;52.638;9.216;2023-05-29T12:31:26;102132.41;;;18.87;43.53
32033;BME280;31720;52.638;9.216;2023-05-29T12:34:34;102138.28;;;18.92;45.63
32033;BME280;31720;52.638;9.216;2023-05-29T12:37:41;102137.09;;;19.23;47.62
32033;BME280;31720;52.638;9.216;2023-05-29T12:40:48;102126.34;;;19.50;43.96
32033;BME280;31720;52.638;9.216;2023-05-29T12:43:49;102132.41;;;19.52;40.33
32033;BME280;31720;52.638;9.216;2023-05-29T12:46:56;102133.50;;;19.50;43.60
32033;BME280;31720;52.638;9.216;2023-05-29T12:49:57;102135.44;;;19.61;44.77
32033;BME280;31720;52.638;9.216;2023-05-29T12:53:01;102133.31;;;19.79;47.83
32033;BME280;31720;52.638;9.216;2023-05-29T12:56:03;102133.97;;;19.82;44.25
32033;BME280;31720;52.638;9.216;2023-05-29T12:59:04;102124.06;;;19.71;43.95
32033;BME280;31720;52.638;9.216;2023-05-29T13:02:06;102121.44;;;19.57;45.00
32033;BME280;31720;52.638;9.216;2023-05-29T13:05:08;102117.31;;;19.53;46.30
32033;BME280;31720;52.638;9.216;2023-05-29T13:08:11;102126.16;;;19.66;43.75
32033;BME280;31720;52.638;9.216;2023-05-29T13:11:12;102122.63;;;19.91;44.78
32033;BME280;31720;52.638;9.216;2023-05-29T13:14:14;102131.38;;;20.06;43.33
32033;BME280;31720;52.638;9.216;2023-05-29T13:17:15;102122.50;;;20.06;41.64
32033;BME280;31720;52.638;9.216;2023-05-29T13:20:17;102122.63;;;19.91;45.79
32033;BME280;31720;52.638;9.216;2023-05-29T13:23:20;102130.31;;;20.09;45.70
32033;BME280;31720;52.638;9.216;2023-05-29T13:26:21;102136.38;;;19.98;41.73
32033;BME280;31720;52.638;9.216;2023-05-29T13:29:23;102130.50;;;20.06;42.56
32033;BME280;31720;52.638;9.216;2023-05-29T13:32:24;102138.94;;;20.12;45.41
32033;BME280;31720;52.638;9.216;2023-05-29T13:35:25;102126.50;;;20.37;44.04
32033;BME280;31720;52.638;9.216;2023-05-29T13:38:28;102132.56;;;20.51;43.53
32033;BME280;31720;52.638;9.216;2023-05-29T13:41:30;102125.06;;;20.57;47.08
32033;BME280;31720;52.638;9.216;2023-05-29T13:44:31;102127.84;;;20.55;45.55
32033;BME280;31720;52.638;9.216;2023-05-29T13:47:32;102123.34;;;20.56;43.64
32033;BME280;31720;52.638;9.216;2023-05-29T13:50:34;102125.69;;;20.60;43.06
32033;BME280;31720;52.638;9.216;2023-05-29T13:53:36;102121.22;;;20.48;42.50
32033;BME280;31720;52.638;9.216;2023-05-29T13:56:38;102117.16;;;20.42;41.22
32033;BME280;31720;52.638;9.216;2023-05-29T13:59:39;102106.88;;;20.62;44.63
32033;BME280;31720;52.638;9.216;2023-05-29T14:02:41;102113.44;;;20.58;41.07
32033;BME280;31720;52.638;9.216;2023-05-29T14:05:42;102110.66;;;20.10;42.82
32033;BME280;31720;52.638;9.216;2023-05-29T14:08:45;102112.63;;;20.32;44.27
32033;BME280;31720;52.638;9.216;2023-05-29T14:11:46;102118.78;;;20.58;42.92
32033;BME280;31720;52.638;9.216;2023-05-29T14:14:48;102108.75;;;20.72;41.88
32033;BME280;31720;52.638;9.216;2023-05-29T14:17:49;102094.31;;;20.51;41.08
32033;BME280;31720;52.638;9.216;2023-05-29T14:20:51;102102.50;;;20.61;43.27
32033;BME280;31720;52.638;9.216;2023-05-29T14:23:53;102103.97;;;20.65;42.74
32033;BME280;31720;52.638;9.216;2023-05-29T14:26:55;102105.97;;;20.74;41.74
32033;BME280;31720;52.638;9.216;2023-05-29T14:29:56;102104.72;;;20.91;41.95
32033;BME280;31720;52.638;9.216;2023-05-29T14:32:58;102106.88;;;20.86;43.32
32033;BME280;31720;52.638;9.216;2023-05-29T14:35:59;102098.84;;;20.86;43.98
32033;BME280;31720;52.638;9.216;2023-05-29T14:39:02;102112.38;;;20.95;44.39
32033;BME280;31720;52.638;9.216;2023-05-29T14:42:04;102113.06;;;20.86;42.14
32033;BME280;31720;52.638;9.216;2023-05-29T14:45:07;102107.75;;;20.62;43.31
32033;BME280;31720;52.638;9.216;2023-05-29T14:48:08;102102.41;;;20.62;45.72
32033;BME280;31720;52.638;9.216;2023-05-29T14:51:10;102105.63;;;20.78;43.42
32033;BME280;31720;52.638;9.216;2023-05-29T14:54:13;102098.22;;;20.82;42.18
32033;BME280;31720;52.638;9.216;2023-05-29T14:57:15;102095.44;;;20.60;40.21
32033;BME280;31720;52.638;9.216;2023-05-29T15:00:17;102094.44;;;20.49;43.60
32033;BME280;31720;52.638;9.216;2023-05-29T15:03:19;102091.31;;;20.43;44.52
32033;BME280;31720;52.638;9.216;2023-05-29T15:06:20;102086.28;;;20.14;44.87
32033;BME280;31720;52.638;9.216;2023-05-29T15:09:23;102094.44;;;20.00;45.06
32033;BME280;31720;52.638;9.216;2023-05-29T15:12:24;102089.59;;;20.18;44.16
32033;BME280;31720;52.638;9.216;2023-05-29T15:15:26;102100.91;;;20.58;46.44
32033;BME280;31720;52.638;9.216;2023-05-29T15:18:28;102091.75;;;20.73;42.39
32033;BME280;31720;52.638;9.216;2023-05-29T15:21:29;102095.22;;;20.87;43.15
32033;BME280;31720;52.638;9.216;2023-05-29T15:24:32;102101.81;;;20.70;45.36
32033;BME280;31720;52.638;9.216;2023-05-29T15:27:33;102093.69;;;20.47;44.91
32033;BME280;31720;52.638;9.216;2023-05-29T15:30:35;102087.91;;;20.41;45.27
32033;BME280;31720;52.638;9.216;2023-05-29T15:33:36;102084.50;;;20.39;45.88
32033;BME280;31720;52.638;9.216;2023-05-29T15:36:38;102089.41;;;20.08;47.11
32033;BME280;31720;52.638;9.216;2023-05-29T15:39:41;102090.31;;;19.70;49.50
32033;BME280;31720;52.638;9.216;2023-05-29T15:42:42;102089.25;;;19.86;48.34
32033;BME280;31720;52.638;9.216;2023-05-29T15:45:43;102080.59;;;19.82;48.92
32033;BME280;31720;52.638;9.216;2023-05-29T15:48:46;102092.56;;;19.76;50.47
32033;BME280;31720;52.638;9.216;2023-05-29T15:51:47;102097.25;;;19.86;50.49
32033;BME280;31720;52.638;9.216;2023-05-29T15:54:50;102085.19;;;19.80;48.26